Airport View

Enter AWOS ICAO identifier for current METAR.

ex. KFNL

KAFF 191758Z 23005KT 10SM SCT100 22/04 A3001 RMK AO2A SLP090 T02190040 10220 20081 57015

19 Jun 2019 18:46

Other Area AWOS: KCOS - KFLY - KFCS - KMNH

TAF KAFF 191101Z 1911/2017 03009KT 9999 SCT180 520109 QNH3001INS WND 270V060 BECMG 1915/1916 33012G18KT 9999 SCT100 520009 QNH3001INS TEMPO 1917/1921 33015G25KT BECMG 1921/1922 16012KT 9999 BKN090 QNH3000INS BECMG 2001/2002 VRB06KT 9999 SKC 520109 QNH2995INS BECMG 2009/2010 VRB06KT 9999 FEW100 530105 QNH2992INS TX23/1920Z TN07/2011Z